sensor_id;sensor_type;location;lat;lon;timestamp;pressure;altitude;pressure_sealevel;temperature;humidity
70370;BME280;57790;51.356;-2.906;2024-02-21T00:02:06;102049.78;;;12.70;100.00
70370;BME280;57790;51.356;-2.906;2024-02-21T00:05:07;102057.75;;;12.70;100.00
70370;BME280;57790;51.356;-2.906;2024-02-21T00:08:07;102039.59;;;12.56;100.00
70370;BME280;57790;51.356;-2.906;2024-02-21T00:11:08;102042.00;;;12.59;100.00
70370;BME280;57790;51.356;-2.906;2024-02-21T00:14:08;102035.53;;;12.61;100.00
70370;BME280;57790;51.356;-2.906;2024-02-21T00:17:08;102026.97;;;12.58;100.00
70370;BME280;57790;51.356;-2.906;2024-02-21T00:20:09;102026.28;;;12.56;100.00
70370;BME280;57790;51.356;-2.906;2024-02-21T00:23:10;102011.06;;;12.48;100.00
70370;BME280;57790;51.356;-2.906;2024-02-21T00:26:11;102007.25;;;12.60;100.00
70370;BME280;57790;51.356;-2.906;2024-02-21T00:29:11;101992.44;;;12.48;100.00
70370;BME280;57790;51.356;-2.906;2024-02-21T00:32:12;101987.97;;;12.39;100.00
70370;BME280;57790;51.356;-2.906;2024-02-21T00:35:13;101986.16;;;12.39;100.00
70370;BME280;57790;51.356;-2.906;2024-02-21T00:38:14;101983.53;;;12.30;100.00
70370;BME280;57790;51.356;-2.906;2024-02-21T00:41:14;101977.88;;;12.42;100.00
70370;BME280;57790;51.356;-2.906;2024-02-21T00:44:15;101967.09;;;12.44;100.00
70370;BME280;57790;51.356;-2.906;2024-02-21T00:47:15;101942.47;;;12.42;100.00
70370;BME280;57790;51.356;-2.906;2024-02-21T00:50:15;101944.03;;;12.44;100.00
70370;BME280;57790;51.356;-2.906;2024-02-21T00:53:16;101938.72;;;12.35;100.00
70370;BME280;57790;51.356;-2.906;2024-02-21T00:56:16;101921.41;;;12.31;100.00
70370;BME280;57790;51.356;-2.906;2024-02-21T00:59:16;101916.47;;;12.36;100.00
70370;BME280;57790;51.356;-2.906;2024-02-21T01:02:17;101913.22;;;12.42;100.00
70370;BME280;57790;51.356;-2.906;2024-02-21T01:05:18;101907.91;;;12.42;100.00
70370;BME280;57790;51.356;-2.906;2024-02-21T01:08:19;101902.56;;;12.42;100.00
70370;BME280;57790;51.356;-2.906;2024-02-21T01:11:19;101892.94;;;12.41;100.00
70370;BME280;57790;51.356;-2.906;2024-02-21T01:14:20;101882.97;;;12.43;100.00
70370;BME280;57790;51.356;-2.906;2024-02-21T01:17:20;101880.38;;;12.33;100.00
70370;BME280;57790;51.356;-2.906;2024-02-21T01:20:21;101878.25;;;12.37;100.00
70370;BME280;57790;51.356;-2.906;2024-02-21T01:23:21;101851.91;;;12.43;100.00
70370;BME280;57790;51.356;-2.906;2024-02-21T01:26:22;101845.75;;;12.43;100.00
70370;BME280;57790;51.356;-2.906;2024-02-21T01:29:22;101839.44;;;12.44;100.00
70370;BME280;57790;51.356;-2.906;2024-02-21T01:32:22;101839.75;;;12.41;100.00
70370;BME280;57790;51.356;-2.906;2024-02-21T01:35:24;101823.47;;;12.44;100.00
70370;BME280;57790;51.356;-2.906;2024-02-21T01:38:24;101820.56;;;12.47;100.00
70370;BME280;57790;51.356;-2.906;2024-02-21T01:41:25;101814.13;;;12.40;100.00
70370;BME280;57790;51.356;-2.906;2024-02-21T01:44:25;101817.47;;;12.42;100.00
70370;BME280;57790;51.356;-2.906;2024-02-21T01:47:26;101806.22;;;12.30;100.00
70370;BME280;57790;51.356;-2.906;2024-02-21T01:50:27;101803.94;;;12.35;100.00
70370;BME280;57790;51.356;-2.906;2024-02-21T01:53:35;101795.97;;;12.35;100.00
70370;BME280;57790;51.356;-2.906;2024-02-21T01:56:37;101788.28;;;12.32;100.00
70370;BME280;57790;51.356;-2.906;2024-02-21T01:59:38;101785.06;;;12.29;100.00
70370;BME280;57790;51.356;-2.906;2024-02-21T02:02:40;101783.97;;;12.31;100.00
70370;BME280;57790;51.356;-2.906;2024-02-21T02:05:49;101782.97;;;12.32;100.00
70370;BME280;57790;51.356;-2.906;2024-02-21T02:08:50;101777.84;;;12.21;100.00
70370;BME280;57790;51.356;-2.906;2024-02-21T02:11:50;101785.22;;;12.27;100.00
70370;BME280;57790;51.356;-2.906;2024-02-21T02:15:09;101770.09;;;12.28;100.00
70370;BME280;57790;51.356;-2.906;2024-02-21T02:18:10;101759.63;;;12.26;100.00
70370;BME280;57790;51.356;-2.906;2024-02-21T02:21:21;101769.88;;;12.21;100.00
70370;BME280;57790;51.356;-2.906;2024-02-21T02:24:24;101757.41;;;12.21;100.00
70370;BME280;57790;51.356;-2.906;2024-02-21T02:27:26;101764.03;;;12.17;100.00
70370;BME280;57790;51.356;-2.906;2024-02-21T02:30:26;101751.91;;;12.05;100.00
70370;BME280;57790;51.356;-2.906;2024-02-21T02:33:26;101743.25;;;12.03;100.00
70370;BME280;57790;51.356;-2.906;2024-02-21T02:36:27;101722.53;;;12.07;100.00
70370;BME280;57790;51.356;-2.906;2024-02-21T02:39:27;101715.16;;;12.01;100.00
70370;BME280;57790;51.356;-2.906;2024-02-21T02:42:27;101709.94;;;11.99;100.00
70370;BME280;57790;51.356;-2.906;2024-02-21T02:45:28;101702.53;;;12.03;100.00
70370;BME280;57790;51.356;-2.906;2024-02-21T02:48:28;101699.88;;;12.03;100.00
70370;BME280;57790;51.356;-2.906;2024-02-21T02:51:29;101685.63;;;12.04;100.00
70370;BME280;57790;51.356;-2.906;2024-02-21T02:54:29;101690.66;;;11.97;100.00
70370;BME280;57790;51.356;-2.906;2024-02-21T02:57:29;101673.34;;;11.93;100.00
70370;BME280;57790;51.356;-2.906;2024-02-21T03:00:30;101662.03;;;11.91;100.00
70370;BME280;57790;51.356;-2.906;2024-02-21T03:03:30;101652.97;;;11.84;100.00
70370;BME280;57790;51.356;-2.906;2024-02-21T03:06:31;101647.38;;;11.87;100.00
70370;BME280;57790;51.356;-2.906;2024-02-21T03:09:31;101639.53;;;11.85;100.00
70370;BME280;57790;51.356;-2.906;2024-02-21T03:12:32;101620.00;;;11.77;100.00
70370;BME280;57790;51.356;-2.906;2024-02-21T03:15:32;101613.16;;;11.74;100.00
70370;BME280;57790;51.356;-2.906;2024-02-21T03:18:32;101615.81;;;11.74;100.00
70370;BME280;57790;51.356;-2.906;2024-02-21T03:21:33;101601.03;;;11.72;100.00
70370;BME280;57790;51.356;-2.906;2024-02-21T03:24:33;101592.06;;;11.73;100.00
70370;BME280;57790;51.356;-2.906;2024-02-21T03:27:34;101589.41;;;11.73;100.00
70370;BME280;57790;51.356;-2.906;2024-02-21T03:30:34;101575.97;;;11.74;100.00
70370;BME280;57790;51.356;-2.906;2024-02-21T03:33:34;101570.09;;;11.71;100.00
70370;BME280;57790;51.356;-2.906;2024-02-21T03:36:35;101559.34;;;11.72;100.00
70370;BME280;57790;51.356;-2.906;2024-02-21T03:39:35;101556.28;;;11.67;100.00
70370;BME280;57790;51.356;-2.906;2024-02-21T03:42:37;101545.59;;;11.59;100.00
70370;BME280;57790;51.356;-2.906;2024-02-21T03:45:38;101533.31;;;11.58;100.00
70370;BME280;57790;51.356;-2.906;2024-02-21T03:48:38;101521.78;;;11.67;100.00
70370;BME280;57790;51.356;-2.906;2024-02-21T03:51:38;101509.09;;;11.61;100.00
70370;BME280;57790;51.356;-2.906;2024-02-21T03:54:39;101509.63;;;11.65;100.00
70370;BME280;57790;51.356;-2.906;2024-02-21T03:57:39;101499.47;;;11.60;100.00
70370;BME280;57790;51.356;-2.906;2024-02-21T04:00:39;101483.91;;;11.47;100.00
70370;BME280;57790;51.356;-2.906;2024-02-21T04:03:40;101478.28;;;11.50;100.00
70370;BME280;57790;51.356;-2.906;2024-02-21T04:06:47;101474.16;;;11.56;100.00
70370;BME280;57790;51.356;-2.906;2024-02-21T04:09:48;101455.47;;;11.57;100.00
70370;BME280;57790;51.356;-2.906;2024-02-21T04:12:48;101443.59;;;11.52;100.00
70370;BME280;57790;51.356;-2.906;2024-02-21T04:15:50;101442.63;;;11.53;100.00
70370;BME280;57790;51.356;-2.906;2024-02-21T04:18:50;101432.16;;;11.51;100.00
70370;BME280;57790;51.356;-2.906;2024-02-21T04:21:51;101422.56;;;11.41;100.00
70370;BME280;57790;51.356;-2.906;2024-02-21T04:24:51;101402.41;;;11.48;100.00
70370;BME280;57790;51.356;-2.906;2024-02-21T04:27:52;101383.38;;;11.52;100.00
70370;BME280;57790;51.356;-2.906;2024-02-21T04:30:52;101370.09;;;11.52;100.00
70370;BME280;57790;51.356;-2.906;2024-02-21T04:33:53;101358.13;;;11.48;100.00
70370;BME280;57790;51.356;-2.906;2024-02-21T04:36:53;101340.88;;;11.52;100.00
70370;BME280;57790;51.356;-2.906;2024-02-21T04:39:53;101336.03;;;11.48;100.00
70370;BME280;57790;51.356;-2.906;2024-02-21T04:42:54;101329.06;;;11.47;100.00
70370;BME280;57790;51.356;-2.906;2024-02-21T04:45:54;101322.53;;;11.41;100.00
70370;BME280;57790;51.356;-2.906;2024-02-21T04:48:54;101304.66;;;11.43;100.00
70370;BME280;57790;51.356;-2.906;2024-02-21T04:51:55;101293.81;;;11.37;100.00
70370;BME280;57790;51.356;-2.906;2024-02-21T04:54:56;101289.63;;;11.34;100.00
70370;BME280;57790;51.356;-2.906;2024-02-21T04:57:56;101293.81;;;11.37;100.00
70370;BME280;57790;51.356;-2.906;2024-02-21T05:00:57;101276.41;;;11.42;100.00
70370;BME280;57790;51.356;-2.906;2024-02-21T05:03:58;101277.72;;;11.38;100.00
70370;BME280;57790;51.356;-2.906;2024-02-21T05:07:00;101260.69;;;11.05;100.00
70370;BME280;57790;51.356;-2.906;2024-02-21T05:10:00;101255.91;;;11.09;100.00
70370;BME280;57790;51.356;-2.906;2024-02-21T05:13:01;101249.63;;;11.10;100.00
70370;BME280;57790;51.356;-2.906;2024-02-21T05:16:02;101250.75;;;11.07;100.00
70370;BME280;57790;51.356;-2.906;2024-02-21T05:19:03;101235.03;;;11.14;100.00
70370;BME280;57790;51.356;-2.906;2024-02-21T05:22:04;101252.13;;;11.11;100.00
70370;BME280;57790;51.356;-2.906;2024-02-21T05:25:05;101228.72;;;11.07;100.00
70370;BME280;57790;51.356;-2.906;2024-02-21T05:28:06;101232.19;;;11.07;100.00
70370;BME280;57790;51.356;-2.906;2024-02-21T05:31:06;101239.13;;;11.00;100.00
70370;BME280;57790;51.356;-2.906;2024-02-21T05:34:06;101215.53;;;10.79;100.00
70370;BME280;57790;51.356;-2.906;2024-02-21T05:37:07;101202.56;;;10.94;100.00
70370;BME280;57790;51.356;-2.906;2024-02-21T05:40:08;101197.09;;;10.95;100.00
70370;BME280;57790;51.356;-2.906;2024-02-21T05:43:08;101194.06;;;11.08;100.00
70370;BME280;57790;51.356;-2.906;2024-02-21T05:46:09;101184.19;;;11.18;100.00
70370;BME280;57790;51.356;-2.906;2024-02-21T05:49:09;101179.47;;;11.12;100.00
70370;BME280;57790;51.356;-2.906;2024-02-21T05:52:10;101178.97;;;11.09;100.00
70370;BME280;57790;51.356;-2.906;2024-02-21T05:55:10;101155.41;;;11.06;100.00
70370;BME280;57790;51.356;-2.906;2024-02-21T05:58:10;101148.63;;;11.11;100.00
70370;BME280;57790;51.356;-2.906;2024-02-21T06:01:13;101153.78;;;11.13;100.00
70370;BME280;57790;51.356;-2.906;2024-02-21T06:04:14;101141.22;;;11.15;100.00
70370;BME280;57790;51.356;-2.906;2024-02-21T06:07:14;101132.00;;;11.01;100.00
70370;BME280;57790;51.356;-2.906;2024-02-21T06:10:14;101124.56;;;11.05;100.00
70370;BME280;57790;51.356;-2.906;2024-02-21T06:13:15;101120.13;;;11.13;100.00
70370;BME280;57790;51.356;-2.906;2024-02-21T06:16:15;101097.59;;;11.17;100.00
70370;BME280;57790;51.356;-2.906;2024-02-21T06:19:16;101096.22;;;11.13;100.00
70370;BME280;57790;51.356;-2.906;2024-02-21T06:22:16;101083.34;;;11.18;100.00
70370;BME280;57790;51.356;-2.906;2024-02-21T06:25:16;101070.53;;;11.14;100.00
70370;BME280;57790;51.356;-2.906;2024-02-21T06:28:17;101057.97;;;11.16;100.00
70370;BME280;57790;51.356;-2.906;2024-02-21T06:31:17;101047.34;;;11.16;100.00
70370;BME280;57790;51.356;-2.906;2024-02-21T06:34:18;101034.50;;;11.03;100.00
70370;BME280;57790;51.356;-2.906;2024-02-21T06:37:18;101021.56;;;11.00;100.00
70370;BME280;57790;51.356;-2.906;2024-02-21T06:40:22;101018.19;;;10.90;100.00
70370;BME280;57790;51.356;-2.906;2024-02-21T06:43:23;101013.41;;;10.93;100.00
70370;BME280;57790;51.356;-2.906;2024-02-21T06:46:25;101000.63;;;10.89;100.00
70370;BME280;57790;51.356;-2.906;2024-02-21T06:49:26;100997.16;;;10.96;100.00
70370;BME280;57790;51.356;-2.906;2024-02-21T06:52:26;100974.25;;;10.87;100.00
70370;BME280;57790;51.356;-2.906;2024-02-21T06:55:27;100967.63;;;10.91;100.00
70370;BME280;57790;51.356;-2.906;2024-02-21T06:58:27;100966.25;;;10.79;100.00
70370;BME280;57790;51.356;-2.906;2024-02-21T07:01:27;100953.03;;;10.87;100.00
70370;BME280;57790;51.356;-2.906;2024-02-21T07:04:28;100948.50;;;10.80;100.00
70370;BME280;57790;51.356;-2.906;2024-02-21T07:07:29;100930.44;;;10.75;100.00
70370;BME280;57790;51.356;-2.906;2024-02-21T07:10:30;100929.16;;;10.87;100.00
70370;BME280;57790;51.356;-2.906;2024-02-21T07:13:30;100926.47;;;10.79;100.00
70370;BME280;57790;51.356;-2.906;2024-02-21T07:16:31;100929.84;;;10.89;100.00
70370;BME280;57790;51.356;-2.906;2024-02-21T07:19:32;100908.28;;;10.92;100.00
70370;BME280;57790;51.356;-2.906;2024-02-21T07:22:36;100906.31;;;10.94;100.00
70370;BME280;57790;51.356;-2.906;2024-02-21T07:25:36;100897.00;;;10.90;100.00
70370;BME280;57790;51.356;-2.906;2024-02-21T07:28:37;100888.91;;;10.92;100.00
70370;BME280;57790;51.356;-2.906;2024-02-21T07:31:43;100884.09;;;10.95;100.00
70370;BME280;57790;51.356;-2.906;2024-02-21T07:34:44;100877.78;;;10.96;100.00
70370;BME280;57790;51.356;-2.906;2024-02-21T07:37:44;100870.50;;;10.98;100.00
70370;BME280;57790;51.356;-2.906;2024-02-21T07:40:45;100862.75;;;11.05;100.00
70370;BME280;57790;51.356;-2.906;2024-02-21T07:43:45;100861.75;;;11.06;100.00
70370;BME280;57790;51.356;-2.906;2024-02-21T07:46:46;100850.81;;;11.01;100.00
70370;BME280;57790;51.356;-2.906;2024-02-21T07:49:46;100850.44;;;10.96;100.00
70370;BME280;57790;51.356;-2.906;2024-02-21T07:52:46;100843.84;;;11.00;100.00
70370;BME280;57790;51.356;-2.906;2024-02-21T07:55:47;100834.56;;;11.04;100.00
70370;BME280;57790;51.356;-2.906;2024-02-21T07:58:47;100834.56;;;11.04;100.00
70370;BME280;57790;51.356;-2.906;2024-02-21T08:01:48;100818.81;;;11.02;100.00
70370;BME280;57790;51.356;-2.906;2024-02-21T08:04:48;100813.16;;;11.14;100.00
70370;BME280;57790;51.356;-2.906;2024-02-21T08:07:48;100812.84;;;11.09;100.00
70370;BME280;57790;51.356;-2.906;2024-02-21T08:10:49;100800.72;;;11.06;100.00
70370;BME280;57790;51.356;-2.906;2024-02-21T08:13:49;100790.25;;;10.96;100.00
70370;BME280;57790;51.356;-2.906;2024-02-21T08:16:50;100784.81;;;11.06;100.00
70370;BME280;57790;51.356;-2.906;2024-02-21T08:19:53;100769.88;;;11.05;100.00
70370;BME280;57790;51.356;-2.906;2024-02-21T08:22:53;100757.25;;;10.99;100.00
70370;BME280;57790;51.356;-2.906;2024-02-21T08:25:53;100744.69;;;11.01;100.00
70370;BME280;57790;51.356;-2.906;2024-02-21T08:28:54;100728.94;;;10.99;100.00
70370;BME280;57790;51.356;-2.906;2024-02-21T08:31:55;100723.94;;;10.96;100.00
70370;BME280;57790;51.356;-2.906;2024-02-21T08:34:55;100721.00;;;10.99;100.00
70370;BME280;57790;51.356;-2.906;2024-02-21T08:37:55;100730.59;;;11.00;100.00
70370;BME280;57790;51.356;-2.906;2024-02-21T08:40:56;100724.94;;;10.95;100.00
70370;BME280;57790;51.356;-2.906;2024-02-21T08:43:56;100712.69;;;11.02;100.00
70370;BME280;57790;51.356;-2.906;2024-02-21T08:46:57;100708.53;;;11.08;100.00
70370;BME280;57790;51.356;-2.906;2024-02-21T08:49:57;100694.78;;;11.05;100.00
70370;BME280;57790;51.356;-2.906;2024-02-21T08:52:58;100678.53;;;10.99;100.00
70370;BME280;57790;51.356;-2.906;2024-02-21T08:55:58;100668.75;;;11.08;100.00
70370;BME280;57790;51.356;-2.906;2024-02-21T08:58:59;100657.66;;;11.05;100.00
70370;BME280;57790;51.356;-2.906;2024-02-21T09:01:59;100650.50;;;10.97;100.00
70370;BME280;57790;51.356;-2.906;2024-02-21T09:05:00;100642.69;;;11.12;100.00
70370;BME280;57790;51.356;-2.906;2024-02-21T09:08:00;100645.53;;;11.10;100.00
70370;BME280;57790;51.356;-2.906;2024-02-21T09:11:00;100634.75;;;11.03;100.00
70370;BME280;57790;51.356;-2.906;2024-02-21T09:14:01;100634.41;;;11.07;100.00
70370;BME280;57790;51.356;-2.906;2024-02-21T09:17:03;100626.78;;;11.12;100.00
70370;BME280;57790;51.356;-2.906;2024-02-21T09:20:05;100625.47;;;11.08;100.00
70370;BME280;57790;51.356;-2.906;2024-02-21T09:23:06;100615.03;;;11.14;100.00
70370;BME280;57790;51.356;-2.906;2024-02-21T09:26:06;100598.94;;;11.16;100.00
70370;BME280;57790;51.356;-2.906;2024-02-21T09:29:08;100590.16;;;11.15;100.00
70370;BME280;57790;51.356;-2.906;2024-02-21T09:32:08;100580.19;;;11.09;100.00
70370;BME280;57790;51.356;-2.906;2024-02-21T09:35:08;100572.88;;;11.11;100.00
70370;BME280;57790;51.356;-2.906;2024-02-21T09:38:10;100568.94;;;10.99;100.00
70370;BME280;57790;51.356;-2.906;2024-02-21T09:41:17;100571.44;;;11.00;100.00
70370;BME280;57790;51.356;-2.906;2024-02-21T09:44:19;100579.03;;;11.12;100.00
70370;BME280;57790;51.356;-2.906;2024-02-21T09:47:24;100568.41;;;11.12;100.00
70370;BME280;57790;51.356;-2.906;2024-02-21T09:50:26;100554.16;;;11.13;100.00
70370;BME280;57790;51.356;-2.906;2024-02-21T09:53:27;100548.84;;;11.13;100.00
70370;BME280;57790;51.356;-2.906;2024-02-21T09:56:28;100537.72;;;11.17;100.00
70370;BME280;57790;51.356;-2.906;2024-02-21T09:59:31;100522.28;;;11.21;100.00
70370;BME280;57790;51.356;-2.906;2024-02-21T10:02:32;100524.13;;;11.20;100.00
70370;BME280;57790;51.356;-2.906;2024-02-21T10:05:33;100525.06;;;11.27;100.00
70370;BME280;57790;51.356;-2.906;2024-02-21T10:08:34;100507.38;;;11.20;100.00
70370;BME280;57790;51.356;-2.906;2024-02-21T10:11:34;100497.59;;;11.20;100.00
70370;BME280;57790;51.356;-2.906;2024-02-21T10:14:36;100489.94;;;11.25;100.00
70370;BME280;57790;51.356;-2.906;2024-02-21T10:17:37;100474.72;;;11.19;100.00
70370;BME280;57790;51.356;-2.906;2024-02-21T10:20:37;100467.94;;;11.17;100.00
70370;BME280;57790;51.356;-2.906;2024-02-21T10:23:45;100456.78;;;11.21;100.00
70370;BME280;57790;51.356;-2.906;2024-02-21T10:26:45;100445.34;;;11.21;100.00
70370;BME280;57790;51.356;-2.906;2024-02-21T10:29:49;100453.31;;;11.21;100.00
70370;BME280;57790;51.356;-2.906;2024-02-21T10:32:51;100437.69;;;11.26;100.00
70370;BME280;57790;51.356;-2.906;2024-02-21T10:35:53;100430.25;;;11.21;100.00
70370;BME280;57790;51.356;-2.906;2024-02-21T10:38:53;100415.63;;;11.25;100.00
70370;BME280;57790;51.356;-2.906;2024-02-21T10:41:58;100416.63;;;11.24;100.00
70370;BME280;57790;51.356;-2.906;2024-02-21T10:45:01;100400.25;;;11.21;100.00
70370;BME280;57790;51.356;-2.906;2024-02-21T10:48:22;100391.25;;;11.30;100.00
70370;BME280;57790;51.356;-2.906;2024-02-21T10:51:31;100385.25;;;11.28;100.00
70370;BME280;57790;51.356;-2.906;2024-02-21T10:54:51;100386.75;;;11.30;100.00
70370;BME280;57790;51.356;-2.906;2024-02-21T10:57:53;100376.81;;;11.24;100.00
70370;BME280;57790;51.356;-2.906;2024-02-21T11:00:54;100378.63;;;11.32;100.00
70370;BME280;57790;51.356;-2.906;2024-02-21T11:03:57;100362.25;;;11.20;100.00
70370;BME280;57790;51.356;-2.906;2024-02-21T11:07:00;100372.94;;;11.35;100.00
70370;BME280;57790;51.356;-2.906;2024-02-21T11:10:01;100357.75;;;11.29;100.00
70370;BME280;57790;51.356;-2.906;2024-02-21T11:13:10;100349.28;;;11.25;100.00
70370;BME280;57790;51.356;-2.906;2024-02-21T11:16:21;100334.19;;;11.26;100.00
70370;BME280;57790;51.356;-2.906;2024-02-21T11:19:23;100334.69;;;11.29;100.00
70370;BME280;57790;51.356;-2.906;2024-02-21T11:22:24;100339.22;;;11.44;100.00
70370;BME280;57790;51.356;-2.906;2024-02-21T11:25:29;100315.84;;;11.39;100.00
70370;BME280;57790;51.356;-2.906;2024-02-21T11:28:34;100304.72;;;11.44;100.00
70370;BME280;57790;51.356;-2.906;2024-02-21T11:31:41;100304.72;;;11.44;100.00
70370;BME280;57790;51.356;-2.906;2024-02-21T11:34:56;100302.72;;;11.46;100.00
70370;BME280;57790;51.356;-2.906;2024-02-21T11:38:07;100295.84;;;11.51;100.00
70370;BME280;57790;51.356;-2.906;2024-02-21T11:41:09;100288.00;;;11.58;100.00
70370;BME280;57790;51.356;-2.906;2024-02-21T11:44:09;100290.47;;;11.59;100.00
70370;BME280;57790;51.356;-2.906;2024-02-21T11:47:10;100268.13;;;11.69;100.00
70370;BME280;57790;51.356;-2.906;2024-02-21T11:50:10;100276.66;;;11.64;100.00
70370;BME280;57790;51.356;-2.906;2024-02-21T11:53:11;100269.13;;;11.68;100.00
70370;BME280;57790;51.356;-2.906;2024-02-21T11:56:11;100275.47;;;11.67;100.00
70370;BME280;57790;51.356;-2.906;2024-02-21T11:59:11;100258.31;;;11.54;100.00
70370;BME280;57790;51.356;-2.906;2024-02-21T12:02:12;100254.31;;;11.58;100.00
70370;BME280;57790;51.356;-2.906;2024-02-21T12:05:13;100254.22;;;11.67;100.00
70370;BME280;57790;51.356;-2.906;2024-02-21T12:08:13;100246.56;;;11.72;100.00
70370;BME280;57790;51.356;-2.906;2024-02-21T12:11:19;100226.41;;;11.77;100.00
70370;BME280;57790;51.356;-2.906;2024-02-21T12:14:21;100212.28;;;11.77;100.00
70370;BME280;57790;51.356;-2.906;2024-02-21T12:17:22;100218.63;;;11.76;100.00
70370;BME280;57790;51.356;-2.906;2024-02-21T12:20:23;100213.50;;;11.74;100.00
70370;BME280;57790;51.356;-2.906;2024-02-21T12:23:27;100207.09;;;11.83;100.00
70370;BME280;57790;51.356;-2.906;2024-02-21T12:26:27;100204.63;;;11.82;100.00
70370;BME280;57790;51.356;-2.906;2024-02-21T12:29:27;100198.94;;;11.85;100.00
70370;BME280;57790;51.356;-2.906;2024-02-21T12:32:29;100194.28;;;11.87;100.00
70370;BME280;57790;51.356;-2.906;2024-02-21T12:35:30;100202.25;;;11.87;100.00
70370;BME280;57790;51.356;-2.906;2024-02-21T12:38:31;100193.00;;;11.83;100.00
70370;BME280;57790;51.356;-2.906;2024-02-21T12:41:32;100194.19;;;11.95;100.00
70370;BME280;57790;51.356;-2.906;2024-02-21T12:44:33;100193.81;;;11.98;100.00
70370;BME280;57790;51.356;-2.906;2024-02-21T12:47:34;100188.88;;;11.95;100.00
70370;BME280;57790;51.356;-2.906;2024-02-21T12:50:34;100180.81;;;12.03;100.00
70370;BME280;57790;51.356;-2.906;2024-02-21T12:53:35;100182.25;;;12.06;100.00
70370;BME280;57790;51.356;-2.906;2024-02-21T12:56:35;100184.09;;;12.05;100.00
70370;BME280;57790;51.356;-2.906;2024-02-21T12:59:35;100165.38;;;12.13;100.00
70370;BME280;57790;51.356;-2.906;2024-02-21T13:02:36;100162.03;;;12.05;100.00
70370;BME280;57790;51.356;-2.906;2024-02-21T13:05:36;100151.19;;;12.06;100.00
70370;BME280;57790;51.356;-2.906;2024-02-21T13:08:37;100150.09;;;12.15;100.00
70370;BME280;57790;51.356;-2.906;2024-02-21T13:11:39;100149.91;;;12.17;100.00
70370;BME280;57790;51.356;-2.906;2024-02-21T13:14:40;100148.88;;;12.18;100.00
70370;BME280;57790;51.356;-2.906;2024-02-21T13:17:44;100140.91;;;12.18;100.00
70370;BME280;57790;51.356;-2.906;2024-02-21T13:20:44;100151.44;;;12.11;100.00
70370;BME280;57790;51.356;-2.906;2024-02-21T13:23:45;100152.47;;;12.10;100.00
70370;BME280;57790;51.356;-2.906;2024-02-21T13:26:45;100149.13;;;12.23;100.00
70370;BME280;57790;51.356;-2.906;2024-02-21T13:29:45;100136.97;;;12.14;100.00
70370;BME280;57790;51.356;-2.906;2024-02-21T13:32:46;100153.47;;;12.09;100.00
70370;BME280;57790;51.356;-2.906;2024-02-21T13:35:46;100159.22;;;12.13;100.00
70370;BME280;57790;51.356;-2.906;2024-02-21T13:38:46;100148.06;;;12.17;100.00
70370;BME280;57790;51.356;-2.906;2024-02-21T13:41:48;100133.38;;;12.21;100.00
70370;BME280;57790;51.356;-2.906;2024-02-21T13:44:48;100137.25;;;12.19;100.00
70370;BME280;57790;51.356;-2.906;2024-02-21T13:47:49;100135.59;;;12.18;100.00
70370;BME280;57790;51.356;-2.906;2024-02-21T13:50:49;100141.09;;;12.16;100.00
70370;BME280;57790;51.356;-2.906;2024-02-21T13:53:49;100148.69;;;12.19;100.00
70370;BME280;57790;51.356;-2.906;2024-02-21T13:56:50;100152.00;;;12.21;100.00
70370;BME280;57790;51.356;-2.906;2024-02-21T13:59:50;100137.13;;;12.27;100.00
70370;BME280;57790;51.356;-2.906;2024-02-21T14:02:51;100137.13;;;12.27;100.00
70370;BME280;57790;51.356;-2.906;2024-02-21T14:05:51;100143.63;;;12.25;100.00
70370;BME280;57790;51.356;-2.906;2024-02-21T14:08:52;100133.63;;;12.27;100.00
70370;BME280;57790;51.356;-2.906;2024-02-21T14:11:54;100123.91;;;12.34;100.00
70370;BME280;57790;51.356;-2.906;2024-02-21T14:14:54;100126.69;;;12.26;100.00
70370;BME280;57790;51.356;-2.906;2024-02-21T14:17:57;100112.38;;;12.27;100.00
70370;BME280;57790;51.356;-2.906;2024-02-21T14:20:57;100130.97;;;12.27;100.00
70370;BME280;57790;51.356;-2.906;2024-02-21T14:23:57;100118.50;;;12.27;100.00
70370;BME280;57790;51.356;-2.906;2024-02-21T14:26:58;100127.97;;;12.30;100.00
70370;BME280;57790;51.356;-2.906;2024-02-21T14:29:59;100117.16;;;12.31;100.00
70370;BME280;57790;51.356;-2.906;2024-02-21T14:33:00;100136.19;;;12.35;100.00
70370;BME280;57790;51.356;-2.906;2024-02-21T14:36:01;100122.25;;;12.33;100.00
70370;BME280;57790;51.356;-2.906;2024-02-21T14:39:02;100127.59;;;12.33;100.00
70370;BME280;57790;51.356;-2.906;2024-02-21T14:42:04;100142.91;;;12.31;100.00
70370;BME280;57790;51.356;-2.906;2024-02-21T14:45:05;100144.91;;;12.29;100.00
70370;BME280;57790;51.356;-2.906;2024-02-21T14:48:06;100148.38;;;12.29;100.00
70370;BME280;57790;51.356;-2.906;2024-02-21T14:51:07;100161.66;;;12.29;100.00
70370;BME280;57790;51.356;-2.906;2024-02-21T14:54:07;100172.28;;;12.29;100.00
70370;BME280;57790;51.356;-2.906;2024-02-21T14:57:08;100170.94;;;12.33;100.00
70370;BME280;57790;51.356;-2.906;2024-02-21T15:00:09;100165.19;;;12.30;100.00
70370;BME280;57790;51.356;-2.906;2024-02-21T15:03:11;100173.78;;;12.32;100.00
70370;BME280;57790;51.356;-2.906;2024-02-21T15:06:11;100167.44;;;12.33;100.00
70370;BME280;57790;51.356;-2.906;2024-02-21T15:09:12;100158.19;;;12.29;100.00
70370;BME280;57790;51.356;-2.906;2024-02-21T15:12:12;100165.19;;;12.30;100.00
70370;BME280;57790;51.356;-2.906;2024-02-21T15:15:13;100161.84;;;12.28;100.00
70370;BME280;57790;51.356;-2.906;2024-02-21T15:18:14;100161.66;;;12.29;100.00
70370;BME280;57790;51.356;-2.906;2024-02-21T15:21:18;100160.84;;;12.29;100.00
70370;BME280;57790;51.356;-2.906;2024-02-21T15:24:19;100168.66;;;12.30;100.00